Time,TemperatureF,DewpointF,PressureIn,WindDirection,WindDirectionDegrees,WindSpeedMPH,WindSpeedGustMPH,Humidity,HourlyPrecipIn,Conditions,Clouds,dailyrainin,SoftwareType,DateUTC
2013-01-04 00:06:00,-0.2,-5.0,30.29,North,355,0.0,-999.0,81,-99.99,,,0.00,weatherlink.com 1.10,2013-01-04 07:06:00,
2013-01-04 00:21:00,-1.4,-5.0,30.28,North,355,0.0,-999.0,83,-99.99,,,0.00,weatherlink.com 1.10,2013-01-04 07:21:00,
2013-01-04 00:36:00,-1.5,-6.0,30.28,North,355,0.0,-999.0,82,-99.99,,,0.00,weatherlink.com 1.10,2013-01-04 07:36:00,
2013-01-04 00:51:00,-0.6,-5.0,30.27,North,355,0.0,-999.0,83,-99.99,,,0.00,weatherlink.com 1.10,2013-01-04 07:51:00,
2013-01-04 01:06:00,-0.5,-5.0,30.27,North,355,0.0,-999.0,83,-99.99,,,0.00,weatherlink.com 1.10,2013-01-04 08:06:00,
2013-01-04 01:21:00,-0.6,-5.0,30.27,North,355,0.0,-999.0,83,-99.99,,,0.00,weatherlink.com 1.10,2013-01-04 08:21:00,
2013-01-04 01:36:00,-0.3,-4.0,30.26,North,355,0.0,-999.0,83,-99.99,,,0.00,weatherlink.com 1.10,2013-01-04 08:36:00,
2013-01-04 01:51:00,0.6,-3.0,30.25,North,355,0.0,-999.0,84,-99.99,,,0.00,weatherlink.com 1.10,2013-01-04 08:51:00,
2013-01-04 02:06:00,0.0,-4.0,30.25,North,355,0.0,-999.0,83,-99.99,,,0.00,weatherlink.com 1.10,2013-01-04 09:06:00,
2013-01-04 02:21:00,-0.5,-5.0,30.25,North,355,0.0,-999.0,83,-99.99,,,0.00,weatherlink.com 1.10,2013-01-04 09:21:00,
2013-01-04 02:36:00,-0.1,-4.0,30.25,North,355,0.0,-999.0,83,-99.99,,,0.00,weatherlink.com 1.10,2013-01-04 09:36:00,
2013-01-04 02:51:00,-0.2,-5.0,30.25,North,355,2.0,-999.0,81,-99.99,,,0.00,weatherlink.com 1.10,2013-01-04 09:51:00,
2013-01-04 03:06:00,0.1,-4.0,30.25,North,355,0.0,-999.0,83,-99.99,,,0.00,weatherlink.com 1.10,2013-01-04 10:06:00,
2013-01-04 03:21:00,-0.6,-5.0,30.25,North,355,0.0,-999.0,82,-99.99,,,0.00,weatherlink.com 1.10,2013-01-04 10:21:00,
2013-01-04 03:36:00,-1.0,-6.0,30.25,North,355,0.0,-999.0,81,-99.99,,,0.00,weatherlink.com 1.10,2013-01-04 10:36:00,
2013-01-04 03:51:00,-1.2,-5.0,30.25,North,355,0.0,-999.0,83,-99.99,,,0.00,weatherlink.com 1.10,2013-01-04 10:51:00,
2013-01-04 04:06:00,0.1,-3.0,30.25,North,355,0.0,-999.0,85,-99.99,,,0.00,weatherlink.com 1.10,2013-01-04 11:06:00,
2013-01-04 04:21:00,-1.0,-5.0,30.25,North,355,0.0,-999.0,82,-99.99,,,0.00,weatherlink.com 1.10,2013-01-04 11:21:00,
2013-01-04 04:36:00,-1.0,-5.0,30.25,North,355,0.0,-999.0,84,-99.99,,,0.00,weatherlink.com 1.10,2013-01-04 11:36:00,
2013-01-04 04:51:00,-1.6,-6.0,30.25,North,355,0.0,-999.0,81,-99.99,,,0.00,weatherlink.com 1.10,2013-01-04 11:51:00,
2013-01-04 05:06:00,-3.6,-9.0,30.25,North,355,0.0,-999.0,78,-99.99,,,0.00,weatherlink.com 1.10,2013-01-04 12:06:00,
2013-01-04 05:21:00,-2.8,-7.0,30.25,North,355,0.0,-999.0,83,-99.99,,,0.00,weatherlink.com 1.10,2013-01-04 12:21:00,
2013-01-04 05:36:00,-0.9,-5.0,30.24,North,355,0.0,-999.0,81,-99.99,,,0.00,weatherlink.com 1.10,2013-01-04 12:36:00,
2013-01-04 05:51:00,-2.1,-7.0,30.24,North,355,0.0,-999.0,81,-99.99,,,0.00,weatherlink.com 1.10,2013-01-04 12:51:00,
2013-01-04 06:06:00,-0.7,-4.0,30.23,North,355,0.0,-999.0,84,-99.99,,,0.00,weatherlink.com 1.10,2013-01-04 13:06:00,
2013-01-04 06:21:00,1.4,-3.0,30.22,North,355,0.0,-999.0,83,-99.99,,,0.00,weatherlink.com 1.10,2013-01-04 13:21:00,
2013-01-04 06:36:00,-2.4,-7.0,30.22,North,355,0.0,-999.0,79,-99.99,,,0.00,weatherlink.com 1.10,2013-01-04 13:36:00,
2013-01-04 06:51:00,-2.2,-6.0,30.23,North,355,0.0,-999.0,83,-99.99,,,0.00,weatherlink.com 1.10,2013-01-04 13:51:00,
2013-01-04 07:06:00,1.1,-2.0,30.22,North,355,0.0,-999.0,85,-99.99,,,0.00,weatherlink.com 1.10,2013-01-04 14:06:00,
2013-01-04 07:21:00,0.9,-4.0,30.22,North,355,0.0,-999.0,80,-99.99,,,0.00,weatherlink.com 1.10,2013-01-04 14:21:00,
2013-01-04 07:36:00,-5.0,-12.0,30.22,North,355,0.0,-999.0,72,-99.99,,,0.00,weatherlink.com 1.10,2013-01-04 14:36:00,
2013-01-04 07:51:00,-9.5,-15.0,30.22,North,355,0.0,-999.0,78,-99.99,,,0.00,weatherlink.com 1.10,2013-01-04 14:51:00,
2013-01-04 08:06:00,-3.4,-7.0,30.22,North,355,0.0,-999.0,86,-99.99,,,0.00,weatherlink.com 1.10,2013-01-04 15:06:00,
2013-01-04 08:21:00,-3.7,-8.0,30.22,North,355,1.0,-999.0,80,-99.99,,,0.00,weatherlink.com 1.10,2013-01-04 15:21:00,
2013-01-04 08:36:00,-0.7,-4.0,30.22,North,355,0.0,-999.0,85,-99.99,,,0.00,weatherlink.com 1.10,2013-01-04 15:36:00,
2013-01-04 08:51:00,2.8,-1.0,30.22,North,355,0.0,-999.0,84,-99.99,,,0.00,weatherlink.com 1.10,2013-01-04 15:51:00,
2013-01-04 09:06:00,0.8,-5.0,30.22,North,355,0.0,-999.0,77,-99.99,,,0.00,weatherlink.com 1.10,2013-01-04 16:06:00,
2013-01-04 09:21:00,-2.0,-7.0,30.23,North,355,0.0,-999.0,78,-99.99,,,0.00,weatherlink.com 1.10,2013-01-04 16:21:00,
2013-01-04 09:36:00,-0.5,-5.0,30.24,North,355,0.0,-999.0,82,-99.99,,,0.00,weatherlink.com 1.10,2013-01-04 16:36:00,
2013-01-04 09:51:00,4.7,1.0,30.24,North,355,0.0,-999.0,85,-99.99,,,0.00,weatherlink.com 1.10,2013-01-04 16:51:00,
2013-01-04 10:06:00,0.5,-5.0,30.25,North,355,0.0,-999.0,77,-99.99,,,0.00,weatherlink.com 1.10,2013-01-04 17:06:00,
2013-01-04 10:21:00,0.8,-4.0,30.26,North,355,0.0,-999.0,82,-99.99,,,0.00,weatherlink.com 1.10,2013-01-04 17:21:00,
2013-01-04 10:36:00,1.8,-2.0,30.26,North,360,0.0,-999.0,83,-99.99,,,0.00,weatherlink.com 1.10,2013-01-04 17:36:00,
2013-01-04 10:51:00,6.9,4.0,30.25,North,360,0.0,-999.0,86,-99.99,,,0.00,weatherlink.com 1.10,2013-01-04 17:51:00,
2013-01-04 11:06:00,10.1,6.0,30.23,North,360,0.0,-999.0,83,-99.99,,,0.00,weatherlink.com 1.10,2013-01-04 18:06:00,
2013-01-04 11:21:00,11.2,7.0,30.23,North,360,0.0,-999.0,83,-99.99,,,0.00,weatherlink.com 1.10,2013-01-04 18:21:00,
2013-01-04 11:36:00,14.2,10.0,30.22,North,360,0.0,-999.0,82,-99.99,,,0.00,weatherlink.com 1.10,2013-01-04 18:36:00,
2013-01-04 11:51:00,14.7,10.0,30.21,North,360,0.0,-999.0,82,-99.99,,,0.00,weatherlink.com 1.10,2013-01-04 18:51:00,
2013-01-04 12:06:00,14.9,10.0,30.20,North,360,0.0,-999.0,79,-99.99,,,0.00,weatherlink.com 1.10,2013-01-04 19:06:00,
2013-01-04 12:21:00,13.6,8.0,30.19,North,360,1.0,-999.0,77,-99.99,,,0.00,weatherlink.com 1.10,2013-01-04 19:21:00,
2013-01-04 12:36:00,10.4,4.0,30.19,North,360,3.0,-999.0,75,-99.99,,,0.00,weatherlink.com 1.10,2013-01-04 19:36:00,
2013-01-04 12:51:00,9.7,4.0,30.19,North,360,1.0,-999.0,79,-99.99,,,0.00,weatherlink.com 1.10,2013-01-04 19:51:00,
2013-01-04 13:05:00,14.1,9.0,30.18,North,360,1.0,-999.0,79,-99.99,,,0.00,weatherlink.com 1.10,2013-01-04 20:05:00,
2013-01-04 13:21:00,15.8,8.0,30.18,North,360,1.0,-999.0,71,-99.99,,,0.00,weatherlink.com 1.10,2013-01-04 20:21:00,
2013-01-04 13:37:00,11.3,4.0,30.18,NNW,346,1.0,-999.0,71,-99.99,,,0.00,weatherlink.com 1.10,2013-01-04 20:37:00,
2013-01-04 13:52:00,12.0,6.0,30.18,NNW,346,0.0,-999.0,75,-99.99,,,0.00,weatherlink.com 1.10,2013-01-04 20:52:00,
2013-01-04 14:06:00,14.4,6.0,30.17,NNW,343,3.0,-999.0,70,-99.99,,,0.00,weatherlink.com 1.10,2013-01-04 21:06:00,
2013-01-04 14:21:00,15.7,8.0,30.17,NNW,342,1.0,-999.0,70,-99.99,,,0.00,weatherlink.com 1.10,2013-01-04 21:21:00,
2013-01-04 14:36:00,18.6,9.0,30.17,NNW,342,0.0,-999.0,66,-99.99,,,0.00,weatherlink.com 1.10,2013-01-04 21:36:00,
2013-01-04 14:51:00,18.5,8.0,30.17,NNW,342,0.0,-999.0,65,-99.99,,,0.00,weatherlink.com 1.10,2013-01-04 21:51:00,
2013-01-04 15:06:00,19.1,9.0,30.17,NNW,342,0.0,-999.0,65,-99.99,,,0.00,weatherlink.com 1.10,2013-01-04 22:06:00,
2013-01-04 15:22:00,21.9,10.0,30.17,NNW,342,0.0,-999.0,60,-99.99,,,0.00,weatherlink.com 1.10,2013-01-04 22:22:00,
2013-01-04 15:52:00,23.8,9.0,30.16,NNW,342,0.0,-999.0,53,-99.99,,,0.00,weatherlink.com 1.10,2013-01-04 22:52:00,
2013-01-04 16:07:00,22.5,9.0,30.16,NNW,342,0.0,-999.0,56,-99.99,,,0.00,weatherlink.com 1.10,2013-01-04 23:07:00,
2013-01-04 16:21:00,20.6,8.0,30.16,NNW,342,0.0,-999.0,58,-99.99,,,0.00,weatherlink.com 1.10,2013-01-04 23:21:00,
2013-01-04 16:36:00,16.9,6.0,30.16,NNW,342,0.0,-999.0,62,-99.99,,,0.00,weatherlink.com 1.10,2013-01-04 23:36:00,
2013-01-04 16:51:00,13.9,4.0,30.18,NNW,342,0.0,-999.0,66,-99.99,,,0.00,weatherlink.com 1.10,2013-01-04 23:51:00,
2013-01-04 17:06:00,10.1,2.0,30.19,NNW,342,0.0,-999.0,69,-99.99,,,0.00,weatherlink.com 1.10,2013-01-05 00:06:00,
2013-01-04 17:21:00,8.9,2.0,30.20,NNW,342,0.0,-999.0,73,-99.99,,,0.00,weatherlink.com 1.10,2013-01-05 00:21:00,
2013-01-04 17:36:00,8.7,3.0,30.20,NNW,342,0.0,-999.0,76,-99.99,,,0.00,weatherlink.com 1.10,2013-01-05 00:36:00,
2013-01-04 17:52:00,8.0,1.0,30.20,NNW,346,2.0,-999.0,73,-99.99,,,0.00,weatherlink.com 1.10,2013-01-05 00:52:00,
2013-01-04 18:06:00,6.0,1.0,30.20,NNW,348,1.0,-999.0,78,-99.99,,,0.00,weatherlink.com 1.10,2013-01-05 01:06:00,
2013-01-04 18:22:00,6.4,1.0,30.19,NNW,348,0.0,-999.0,78,-99.99,,,0.00,weatherlink.com 1.10,2013-01-05 01:22:00,
2013-01-04 18:37:00,6.1,1.0,30.19,NNW,348,0.0,-999.0,79,-99.99,,,0.00,weatherlink.com 1.10,2013-01-05 01:37:00,
2013-01-04 18:52:00,6.3,1.0,30.18,NNW,348,0.0,-999.0,80,-99.99,,,0.00,weatherlink.com 1.10,2013-01-05 01:52:00,
2013-01-04 19:06:00,6.6,1.0,30.18,NNW,348,0.0,-999.0,79,-99.99,,,0.00,weatherlink.com 1.10,2013-01-05 02:06:00,
2013-01-04 19:22:00,6.3,1.0,30.17,NNW,348,3.0,-999.0,77,-99.99,,,0.00,weatherlink.com 1.10,2013-01-05 02:22:00,
2013-01-04 19:36:00,5.6,0.0,30.18,NNW,348,1.0,-999.0,77,-99.99,,,0.00,weatherlink.com 1.10,2013-01-05 02:36:00,
2013-01-04 19:51:00,3.9,-2.0,30.18,NNW,348,1.0,-999.0,76,-99.99,,,0.00,weatherlink.com 1.10,2013-01-05 02:51:00,
2013-01-04 20:06:00,3.3,-3.0,30.19,NNW,348,0.0,-999.0,75,-99.99,,,0.00,weatherlink.com 1.10,2013-01-05 03:06:00,
2013-01-04 20:22:00,1.1,-4.0,30.20,NNW,348,1.0,-999.0,78,-99.99,,,0.00,weatherlink.com 1.10,2013-01-05 03:22:00,
2013-01-04 20:36:00,2.1,-2.0,30.20,NNW,348,1.0,-999.0,82,-99.99,,,0.00,weatherlink.com 1.10,2013-01-05 03:36:00,
2013-01-04 20:51:00,4.4,0.0,30.20,NNW,348,2.0,-999.0,82,-99.99,,,0.00,weatherlink.com 1.10,2013-01-05 03:51:00,
2013-01-04 21:06:00,-0.5,-7.0,30.20,NW,321,0.0,-999.0,75,-99.99,,,0.00,weatherlink.com 1.10,2013-01-05 04:06:00,
2013-01-04 21:22:00,-2.4,-8.0,30.20,NW,321,0.0,-999.0,78,-99.99,,,0.00,weatherlink.com 1.10,2013-01-05 04:22:00,
2013-01-04 21:36:00,-2.7,-7.0,30.20,NW,321,0.0,-999.0,80,-99.99,,,0.00,weatherlink.com 1.10,2013-01-05 04:36:00,
2013-01-04 21:51:00,-1.9,-6.0,30.20,NW,321,2.0,-999.0,82,-99.99,,,0.00,weatherlink.com 1.10,2013-01-05 04:51:00,
2013-01-04 22:06:00,-1.1,-5.0,30.20,NW,322,1.0,-999.0,84,-99.99,,,0.00,weatherlink.com 1.10,2013-01-05 05:06:00,
2013-01-04 22:21:00,2.0,-2.0,30.20,NW,322,1.0,-999.0,85,-99.99,,,0.00,weatherlink.com 1.10,2013-01-05 05:21:00,
2013-01-04 22:36:00,1.1,-3.0,30.19,NW,324,0.0,-999.0,81,-99.99,,,0.00,weatherlink.com 1.10,2013-01-05 05:36:00,
2013-01-04 22:51:00,1.0,-3.0,30.20,NW,324,1.0,-999.0,82,-99.99,,,0.00,weatherlink.com 1.10,2013-01-05 05:51:00,
2013-01-04 23:06:00,-0.7,-5.0,30.19,NW,325,2.0,-999.0,80,-99.99,,,0.00,weatherlink.com 1.10,2013-01-05 06:06:00,
2013-01-04 23:21:00,-1.4,-6.0,30.19,NW,325,0.0,-999.0,80,-99.99,,,0.00,weatherlink.com 1.10,2013-01-05 06:21:00,
2013-01-04 23:36:00,-2.1,-7.0,30.19,NW,325,2.0,-999.0,81,-99.99,,,0.00,weatherlink.com 1.10,2013-01-05 06:36:00,
2013-01-04 23:51:00,-1.2,-5.0,30.20,NW,326,2.0,-999.0,82,-99.99,,,0.00,weatherlink.com 1.10,2013-01-05 06:51:00,